Time;durP1;ratioP1;P1;durP2;ratioP2;P2;SDS_P1;SDS_P2;PMS_P1;PMS_P2;Temp;Humidity;BMP_temperature;BMP_pressure;BME280_temperature;BME280_humidity;BME280_pressure;Samples;Min_cycle;Max_cycle;Signal;HPM_P1;HPM_P2
2021/07/24 00:01:16;;;;;;;;;;;25.70;47.70;;;;;;1573854;73;1131;-69
2021/07/24 00:03:18;;;;;;;;;;;25.70;47.60;;;;;;1577465;73;1928;-70
2021/07/24 00:05:20;;;;;;;;;;;25.70;47.60;;;;;;1581401;73;730;-67
2021/07/24 00:07:22;;;;;;;;;;;25.70;47.50;;;;;;1595823;73;771;-67
2021/07/24 00:09:24;;;;;;;;;;;25.70;47.40;;;;;;1570100;73;722;-68
2021/07/24 00:11:25;;;;;;;;;;;25.60;47.30;;;;;;1575423;73;1184;-67
2021/07/24 00:13:27;;;;;;;;;;;25.70;47.30;;;;;;1572586;73;709;-67
2021/07/24 00:15:29;;;;;;;;;;;25.70;47.40;;;;;;1569824;73;713;-66
2021/07/24 00:17:31;;;;;;;;;;;25.70;47.50;;;;;;1574130;73;671;-67
2021/07/24 00:19:33;;;;;;;;;;;25.60;47.60;;;;;;1566556;74;783;-68
2021/07/24 00:21:35;;;;;;;;;;;25.60;47.60;;;;;;1570741;73;1154;-67
2021/07/24 00:23:37;;;;;;;;;;;25.60;47.60;;;;;;1587608;73;1930;-67
2021/07/24 00:25:43;;;;;;;;;;;25.60;47.50;;;;;;1568485;73;730;-67
2021/07/24 00:27:42;;;;;;;;;;;25.60;47.40;;;;;;1563137;73;1163;-67
2021/07/24 00:29:44;;;;;;;;;;;25.70;47.50;;;;;;1572916;73;719;-67
2021/07/24 00:31:46;;;;;;;;;;;25.60;47.40;;;;;;1569811;73;1143;-67
2021/07/24 00:33:48;;;;;;;;;;;25.60;47.30;;;;;;1570785;73;716;-65
2021/07/24 00:35:50;;;;;;;;;;;25.60;47.40;;;;;;1571835;73;750;-69
2021/07/24 00:37:52;;;;;;;;;;;25.60;47.30;;;;;;1583843;73;823;-66
2021/07/24 00:39:54;;;;;;;;;;;25.60;47.20;;;;;;1585915;73;735;-67
2021/07/24 00:41:57;;;;;;;;;;;25.70;47.20;;;;;;1579676;73;1166;-67
2021/07/24 00:44:00;;;;;;;;;;;25.70;47.10;;;;;;1558140;73;1984;-68
2021/07/24 00:46:02;;;;;;;;;;;25.60;47.00;;;;;;1576002;73;689;-67
2021/07/24 00:48:05;;;;;;;;;;;25.70;47.00;;;;;;1580016;73;717;-65
2021/07/24 00:50:11;;;;;;;;;;;25.60;46.90;;;;;;1579016;73;783;-69
2021/07/24 00:52:10;;;;;;;;;;;25.60;46.80;;;;;;1563782;73;1568;-66
2021/07/24 00:54:12;;;;;;;;;;;25.70;46.80;;;;;;1568354;73;738;-68
2021/07/24 00:56:14;;;;;;;;;;;25.60;46.70;;;;;;1565093;73;790;-67
2021/07/24 00:58:25;;;;;;;;;;;25.60;46.70;;;;;;1567442;73;717;-67
2021/07/24 01:00:27;;;;;;;;;;;25.60;46.70;;;;;;1580848;73;790;-69
2021/07/24 01:02:29;;;;;;;;;;;25.60;46.60;;;;;;1569026;73;1157;-67
2021/07/24 01:04:31;;;;;;;;;;;25.60;46.60;;;;;;1575184;74;1949;-65
2021/07/24 01:06:33;;;;;;;;;;;25.60;46.50;;;;;;1564356;73;813;-67
2021/07/24 01:08:36;;;;;;;;;;;25.70;46.50;;;;;;1584242;73;716;-68
2021/07/24 01:10:38;;;;;;;;;;;25.50;46.30;;;;;;1568111;73;696;-68
2021/07/24 01:12:40;;;;;;;;;;;25.70;46.10;;;;;;1571960;73;1206;-67
2021/07/24 01:14:42;;;;;;;;;;;25.60;46.00;;;;;;1562773;73;703;-67
2021/07/24 01:16:45;;;;;;;;;;;25.60;46.00;;;;;;1573493;73;749;-67
2021/07/24 01:18:47;;;;;;;;;;;25.60;46.00;;;;;;1575584;73;772;-68
2021/07/24 01:20:49;;;;;;;;;;;25.60;45.90;;;;;;1569611;73;789;-70
2021/07/24 01:22:52;;;;;;;;;;;25.70;46.00;;;;;;1573437;73;1092;-68
2021/07/24 01:24:54;;;;;;;;;;;25.60;46.00;;;;;;1563020;73;1939;-67
2021/07/24 01:26:56;;;;;;;;;;;25.60;46.10;;;;;;1565566;73;671;-69
2021/07/24 01:28:58;;;;;;;;;;;25.50;46.20;;;;;;1564967;73;716;-68
2021/07/24 01:31:01;;;;;;;;;;;25.50;46.30;;;;;;1567609;73;850;-69
2021/07/24 01:33:03;;;;;;;;;;;25.50;46.40;;;;;;1578310;72;2088;-68
2021/07/24 01:35:05;;;;;;;;;;;25.60;46.40;;;;;;1573169;75;788;-68
2021/07/24 01:37:07;;;;;;;;;;;25.50;46.40;;;;;;1572423;75;714;-65
2021/07/24 01:39:09;;;;;;;;;;;25.50;46.30;;;;;;1559094;74;684;-68
2021/07/24 01:41:12;;;;;;;;;;;25.60;46.30;;;;;;1569559;74;803;-69
2021/07/24 01:43:14;;;;;;;;;;;25.50;46.40;;;;;;1563942;75;1950;-68
2021/07/24 01:45:15;;;;;;;;;;;25.60;46.50;;;;;;1565164;75;733;-70
2021/07/24 01:47:17;;;;;;;;;;;25.50;46.60;;;;;;1562085;75;734;-70
2021/07/24 01:53:43;;;;;;;;;;;25.50;46.50;;;;;;1563268;75;944;-70
2021/07/24 01:55:51;;;;;;;;;;;25.50;46.50;;;;;;1562440;75;800;-71
2021/07/24 01:57:53;;;;;;;;;;;25.50;46.50;;;;;;1559330;75;792;-69
2021/07/24 01:59:55;;;;;;;;;;;25.50;46.60;;;;;;1563355;75;890;-68
2021/07/24 02:01:57;;;;;;;;;;;25.50;46.50;;;;;;1562807;75;1133;-68
2021/07/24 02:04:00;;;;;;;;;;;25.60;46.50;;;;;;1559591;75;1942;-68
2021/07/24 02:06:03;;;;;;;;;;;25.50;46.50;;;;;;1559752;75;1784;-69
2021/07/24 02:08:05;;;;;;;;;;;25.50;46.60;;;;;;1560738;75;712;-67
2021/07/24 02:10:07;;;;;;;;;;;25.60;46.60;;;;;;1562989;75;712;-70
2021/07/24 02:12:09;;;;;;;;;;;25.50;46.70;;;;;;1562810;75;1155;-69
2021/07/24 02:14:11;;;;;;;;;;;25.50;46.80;;;;;;1562057;75;773;-68
2021/07/24 02:16:13;;;;;;;;;;;25.50;46.80;;;;;;1566342;75;931;-69
2021/07/24 02:18:18;;;;;;;;;;;25.50;46.80;;;;;;1564392;75;801;-72
2021/07/24 02:20:21;;;;;;;;;;;25.50;46.80;;;;;;1565901;75;806;-70
2021/07/24 02:22:22;;;;;;;;;;;25.50;46.90;;;;;;1563613;75;1137;-72
2021/07/24 02:24:24;;;;;;;;;;;25.50;46.90;;;;;;1558116;75;1942;-70
2021/07/24 02:26:26;;;;;;;;;;;25.50;46.90;;;;;;1555975;75;715;-66
2021/07/24 02:28:28;;;;;;;;;;;25.50;46.90;;;;;;1563080;75;772;-70
2021/07/24 02:30:30;;;;;;;;;;;25.50;46.90;;;;;;1563042;75;789;-70
2021/07/24 02:32:32;;;;;;;;;;;25.50;46.90;;;;;;1565536;75;1172;-69
2021/07/24 02:34:34;;;;;;;;;;;25.60;46.90;;;;;;1557785;75;703;-70
2021/07/24 02:36:36;;;;;;;;;;;25.50;47.00;;;;;;1561082;75;686;-70
2021/07/24 02:38:37;;;;;;;;;;;25.50;46.90;;;;;;1562892;75;716;-72
2021/07/24 02:40:40;;;;;;;;;;;25.50;46.90;;;;;;1562747;75;793;-69
2021/07/24 02:42:42;;;;;;;;;;;25.50;47.00;;;;;;1568047;75;1174;-73
2021/07/24 02:44:44;;;;;;;;;;;25.50;47.00;;;;;;1553464;75;1938;-69
2021/07/24 02:46:45;;;;;;;;;;;25.50;46.90;;;;;;1563098;75;795;-70
2021/07/24 02:48:47;;;;;;;;;;;25.50;46.90;;;;;;1561178;75;766;-70
2021/07/24 02:50:49;;;;;;;;;;;25.50;46.90;;;;;;1563875;75;832;-70
2021/07/24 02:52:51;;;;;;;;;;;25.50;46.80;;;;;;1566004;75;1180;-69
2021/07/24 02:54:53;;;;;;;;;;;25.50;46.80;;;;;;1561363;75;758;-68
2021/07/24 02:56:55;;;;;;;;;;;25.50;46.90;;;;;;1559191;75;757;-70
2021/07/24 02:58:57;;;;;;;;;;;25.50;46.90;;;;;;1563821;75;779;-73
2021/07/24 03:00:59;;;;;;;;;;;25.50;46.90;;;;;;1563533;75;778;-68
2021/07/24 03:03:00;;;;;;;;;;;25.50;46.90;;;;;;1563893;75;1144;-70
2021/07/24 03:05:02;;;;;;;;;;;25.50;46.90;;;;;;1563189;75;1935;-70
2021/07/24 03:07:04;;;;;;;;;;;25.50;46.90;;;;;;1565323;75;728;-71
2021/07/24 03:09:07;;;;;;;;;;;25.50;46.90;;;;;;1567955;75;793;-71
2021/07/24 03:11:09;;;;;;;;;;;25.50;46.90;;;;;;1570787;75;779;-69
2021/07/24 03:13:11;;;;;;;;;;;25.50;46.90;;;;;;1555604;75;1144;-71
2021/07/24 03:15:13;;;;;;;;;;;25.50;46.90;;;;;;1563196;75;804;-70
2021/07/24 03:17:14;;;;;;;;;;;25.50;46.80;;;;;;1567569;75;733;-71
2021/07/24 03:19:16;;;;;;;;;;;25.40;46.70;;;;;;1561977;75;668;-72
2021/07/24 03:21:19;;;;;;;;;;;25.40;46.80;;;;;;1559241;75;794;-75
2021/07/24 03:23:20;;;;;;;;;;;25.40;46.80;;;;;;1565717;75;1138;-72
2021/07/24 03:25:22;;;;;;;;;;;25.50;46.80;;;;;;1564175;75;1939;-72
2021/07/24 03:27:24;;;;;;;;;;;25.40;46.70;;;;;;1564235;75;792;-74
2021/07/24 03:29:26;;;;;;;;;;;25.50;46.80;;;;;;1562032;75;780;-72
2021/07/24 03:31:28;;;;;;;;;;;25.40;46.80;;;;;;1553190;75;747;-71
2021/07/24 03:33:30;;;;;;;;;;;25.50;46.90;;;;;;1563169;75;1113;-73
2021/07/24 03:35:33;;;;;;;;;;;25.50;46.80;;;;;;1549647;75;768;-72
2021/07/24 03:37:35;;;;;;;;;;;25.50;46.70;;;;;;1567550;75;659;-72
2021/07/24 03:39:37;;;;;;;;;;;25.50;46.60;;;;;;1563587;75;775;-75
2021/07/24 03:41:39;;;;;;;;;;;25.50;46.50;;;;;;1556484;75;1153;-71
2021/07/24 03:43:42;;;;;;;;;;;25.50;46.50;;;;;;1563399;75;770;-71
2021/07/24 03:45:44;;;;;;;;;;;25.50;46.50;;;;;;1550169;75;1915;-73
2021/07/24 03:47:46;;;;;;;;;;;25.40;46.60;;;;;;1561206;75;736;-67
2021/07/24 03:49:47;;;;;;;;;;;25.40;46.60;;;;;;1563504;75;788;-70
2021/07/24 03:51:49;;;;;;;;;;;25.40;46.60;;;;;;1563421;75;1159;-70
2021/07/24 03:53:51;;;;;;;;;;;25.50;46.70;;;;;;1568744;75;793;-69
2021/07/24 03:55:54;;;;;;;;;;;25.50;46.70;;;;;;1563398;75;838;-70
2021/07/24 03:57:57;;;;;;;;;;;25.50;46.70;;;;;;1562421;75;777;-70
2021/07/24 04:00:01;;;;;;;;;;;25.50;46.80;;;;;;1548619;75;718;-74
2021/07/24 04:02:05;;;;;;;;;;;25.50;46.80;;;;;;1547780;75;1571;-67
2021/07/24 04:04:06;;;;;;;;;;;25.50;46.80;;;;;;1567737;75;1931;-69
2021/07/24 04:06:09;;;;;;;;;;;25.40;46.80;;;;;;1563753;75;686;-70
2021/07/24 04:08:11;;;;;;;;;;;25.50;46.90;;;;;;1563119;75;1808;-70
2021/07/24 04:10:13;;;;;;;;;;;25.50;46.80;;;;;;1567369;75;734;-75
2021/07/24 04:12:15;;;;;;;;;;;25.40;46.80;;;;;;1567114;75;1132;-72
2021/07/24 04:14:17;;;;;;;;;;;25.40;46.80;;;;;;1566081;75;788;-70
2021/07/24 04:16:19;;;;;;;;;;;25.40;46.80;;;;;;1562624;75;775;-70
2021/07/24 04:18:24;;;;;;;;;;;25.40;46.80;;;;;;1563119;75;768;-69
2021/07/24 04:20:24;;;;;;;;;;;25.40;46.80;;;;;;1561758;75;1526;-76
2021/07/24 04:22:26;;;;;;;;;;;25.40;46.90;;;;;;1558267;75;1118;-72
2021/07/24 04:24:28;;;;;;;;;;;25.40;46.90;;;;;;1565272;75;1947;-70
2021/07/24 04:26:30;;;;;;;;;;;25.50;47.00;;;;;;1563059;75;680;-72
2021/07/24 04:28:32;;;;;;;;;;;25.40;47.00;;;;;;1562907;75;714;-71
2021/07/24 04:30:34;;;;;;;;;;;25.40;47.00;;;;;;1562821;75;760;-71
2021/07/24 04:32:36;;;;;;;;;;;25.40;47.00;;;;;;1561879;75;1101;-71
2021/07/24 04:34:38;;;;;;;;;;;25.40;47.00;;;;;;1561855;75;759;-69
2021/07/24 04:36:41;;;;;;;;;;;25.40;47.00;;;;;;1562301;75;734;-69
2021/07/24 04:38:43;;;;;;;;;;;25.40;47.00;;;;;;1564191;75;669;-69
2021/07/24 04:40:45;;;;;;;;;;;25.40;47.10;;;;;;1563697;75;904;-69
2021/07/24 04:42:47;;;;;;;;;;;25.40;47.10;;;;;;1564827;75;1137;-70
2021/07/24 04:44:49;;;;;;;;;;;25.40;47.10;;;;;;1562967;75;1950;-69
2021/07/24 04:46:51;;;;;;;;;;;25.50;47.10;;;;;;1562514;75;742;-69
2021/07/24 04:48:52;;;;;;;;;;;25.50;47.00;;;;;;1563613;75;779;-70
2021/07/24 04:50:55;;;;;;;;;;;25.40;47.10;;;;;;1563597;75;707;-71
2021/07/24 04:52:57;;;;;;;;;;;25.40;47.20;;;;;;1563475;75;1184;-72
2021/07/24 04:54:59;;;;;;;;;;;25.40;47.40;;;;;;1560601;75;772;-71
2021/07/24 04:57:01;;;;;;;;;;;25.40;47.50;;;;;;1563520;75;742;-70
2021/07/24 04:59:04;;;;;;;;;;;25.40;47.60;;;;;;1534025;77;853;-68
2021/07/24 05:01:05;;;;;;;;;;;25.40;47.60;;;;;;1537950;76;817;-69
2021/07/24 05:03:07;;;;;;;;;;;25.40;47.70;;;;;;1563106;75;1109;-69
2021/07/24 05:05:10;;;;;;;;;;;25.30;47.80;;;;;;1560961;75;1942;-69
2021/07/24 05:07:12;;;;;;;;;;;25.40;47.90;;;;;;1568151;75;876;-67
2021/07/24 05:09:14;;;;;;;;;;;25.40;47.90;;;;;;1564448;75;753;-68
2021/07/24 05:11:15;;;;;;;;;;;25.40;48.00;;;;;;1563006;75;753;-67
2021/07/24 05:13:17;;;;;;;;;;;25.40;48.10;;;;;;1564326;75;1133;-70
2021/07/24 05:15:19;;;;;;;;;;;25.40;48.10;;;;;;1563403;75;628;-76
2021/07/24 05:17:21;;;;;;;;;;;25.50;48.20;;;;;;1564243;75;783;-73
2021/07/24 05:19:23;;;;;;;;;;;25.40;48.20;;;;;;1563296;75;807;-71
2021/07/24 05:21:25;;;;;;;;;;;25.40;48.30;;;;;;1563179;75;754;-71
2021/07/24 05:23:29;;;;;;;;;;;25.40;48.40;;;;;;1561166;75;1113;-72
2021/07/24 05:25:30;;;;;;;;;;;25.40;48.40;;;;;;1561943;75;1915;-69
2021/07/24 05:27:32;;;;;;;;;;;25.40;48.50;;;;;;1559427;75;730;-70
2021/07/24 05:29:34;;;;;;;;;;;25.40;48.50;;;;;;1563631;75;819;-73
2021/07/24 05:31:36;;;;;;;;;;;25.40;48.60;;;;;;1563528;75;734;-71
2021/07/24 05:33:38;;;;;;;;;;;25.40;48.60;;;;;;1559025;75;718;-70
2021/07/24 05:35:40;;;;;;;;;;;25.50;48.80;;;;;;1563712;75;794;-68
2021/07/24 05:37:42;;;;;;;;;;;25.50;48.70;;;;;;1563933;75;805;-70
2021/07/24 05:39:43;;;;;;;;;;;25.50;48.80;;;;;;1563686;75;892;-66
2021/07/24 05:41:45;;;;;;;;;;;25.50;48.90;;;;;;1561894;75;1185;-64
2021/07/24 05:43:47;;;;;;;;;;;25.50;48.80;;;;;;1564661;75;728;-68
2021/07/24 05:45:49;;;;;;;;;;;25.50;48.90;;;;;;1562949;75;1946;-70
2021/07/24 05:47:51;;;;;;;;;;;25.50;48.90;;;;;;1565089;75;748;-67
2021/07/24 05:49:53;;;;;;;;;;;25.50;48.90;;;;;;1562709;75;805;-71
2021/07/24 05:51:55;;;;;;;;;;;25.50;48.90;;;;;;1560203;75;1164;-69
2021/07/24 05:53:57;;;;;;;;;;;25.50;48.90;;;;;;1563148;75;728;-71
2021/07/24 05:56:00;;;;;;;;;;;25.50;49.00;;;;;;1562643;75;800;-69
2021/07/24 05:58:02;;;;;;;;;;;25.50;48.90;;;;;;1564129;75;661;-71
2021/07/24 06:00:08;;;;;;;;;;;25.50;49.00;;;;;;1563228;75;735;-72
2021/07/24 06:02:13;;;;;;;;;;;25.50;48.90;;;;;;1560229;75;1122;-74
2021/07/24 06:04:15;;;;;;;;;;;25.40;48.90;;;;;;1562794;75;812;-72
2021/07/24 06:06:17;;;;;;;;;;;25.60;48.90;;;;;;1562448;75;1962;-69
2021/07/24 06:08:19;;;;;;;;;;;25.50;48.90;;;;;;1565629;75;811;-69
2021/07/24 06:10:21;;;;;;;;;;;25.50;48.90;;;;;;1563568;75;734;-70
2021/07/24 06:12:22;;;;;;;;;;;25.50;48.80;;;;;;1564907;75;1149;-69
2021/07/24 06:14:24;;;;;;;;;;;25.50;48.90;;;;;;1568044;75;712;-69
2021/07/24 06:16:26;;;;;;;;;;;25.50;48.90;;;;;;1568126;75;777;-68
2021/07/24 06:18:28;;;;;;;;;;;25.50;48.80;;;;;;1563761;75;779;-69
2021/07/24 06:20:30;;;;;;;;;;;25.50;48.80;;;;;;1563215;75;918;-68
2021/07/24 06:22:32;;;;;;;;;;;25.50;48.60;;;;;;1563790;75;1140;-69
2021/07/24 06:24:34;;;;;;;;;;;25.50;48.60;;;;;;1563547;75;789;-68
2021/07/24 06:26:37;;;;;;;;;;;25.50;48.60;;;;;;1563287;75;1931;-67
2021/07/24 06:28:39;;;;;;;;;;;25.60;48.70;;;;;;1562849;75;734;-68
2021/07/24 06:30:41;;;;;;;;;;;25.50;48.90;;;;;;1565059;75;728;-68
2021/07/24 06:32:43;;;;;;;;;;;25.50;48.60;;;;;;1564025;75;1131;-70
2021/07/24 06:34:45;;;;;;;;;;;25.50;48.50;;;;;;1563233;75;817;-69
2021/07/24 06:36:47;;;;;;;;;;;25.50;48.50;;;;;;1555778;75;722;-69
2021/07/24 06:38:48;;;;;;;;;;;25.50;48.60;;;;;;1558796;75;782;-69
2021/07/24 06:40:50;;;;;;;;;;;25.50;48.70;;;;;;1562972;75;733;-70
2021/07/24 06:42:52;;;;;;;;;;;25.50;48.70;;;;;;1563707;75;1176;-70
2021/07/24 06:44:54;;;;;;;;;;;25.50;48.70;;;;;;1561372;75;1153;-70
2021/07/24 06:46:57;;;;;;;;;;;25.60;48.80;;;;;;1563073;75;1950;-68
2021/07/24 06:48:59;;;;;;;;;;;25.50;48.80;;;;;;1562099;75;904;-68
2021/07/24 06:51:01;;;;;;;;;;;25.50;48.60;;;;;;1564705;75;772;-69
2021/07/24 06:53:03;;;;;;;;;;;25.60;48.50;;;;;;1564368;75;1173;-70
2021/07/24 06:55:05;;;;;;;;;;;25.60;48.40;;;;;;1560581;75;715;-69
2021/07/24 06:57:07;;;;;;;;;;;25.50;48.40;;;;;;1563555;75;703;-69
2021/07/24 06:59:09;;;;;;;;;;;25.60;48.30;;;;;;1563720;75;779;-66
2021/07/24 07:01:11;;;;;;;;;;;25.50;48.40;;;;;;1562721;75;701;-69
2021/07/24 07:03:13;;;;;;;;;;;25.50;48.50;;;;;;1557347;75;1218;-69
2021/07/24 07:05:14;;;;;;;;;;;25.60;48.40;;;;;;1565076;75;1950;-69
2021/07/24 07:07:20;;;;;;;;;;;25.60;48.40;;;;;;1562560;75;688;-71
2021/07/24 07:09:20;;;;;;;;;;;25.60;48.50;;;;;;1563042;75;1631;-69
2021/07/24 07:11:24;;;;;;;;;;;25.50;48.50;;;;;;1562385;75;829;-71
2021/07/24 07:13:25;;;;;;;;;;;25.50;48.60;;;;;;1563612;75;1952;-69
2021/07/24 07:15:28;;;;;;;;;;;25.40;48.70;;;;;;1569270;75;776;-69
2021/07/24 07:17:30;;;;;;;;;;;25.40;48.90;;;;;;1566746;75;590;-69
2021/07/24 07:19:32;;;;;;;;;;;25.40;48.80;;;;;;1565213;75;730;-70
2021/07/24 07:21:34;;;;;;;;;;;25.40;49.10;;;;;;1554561;75;792;-70
2021/07/24 07:23:36;;;;;;;;;;;25.40;49.00;;;;;;1555319;75;1137;-69
2021/07/24 07:25:38;;;;;;;;;;;25.30;49.60;;;;;;1565882;75;1942;-70
2021/07/24 07:27:40;;;;;;;;;;;25.30;49.30;;;;;;1563479;75;775;-68
2021/07/24 07:29:43;;;;;;;;;;;25.30;49.40;;;;;;1563220;75;706;-68
2021/07/24 07:31:45;;;;;;;;;;;25.40;49.40;;;;;;1562972;75;1149;-70
2021/07/24 07:33:47;;;;;;;;;;;25.30;49.50;;;;;;1530212;72;222630;-70
2021/07/24 07:35:48;;;;;;;;;;;25.30;49.70;;;;;;1531314;75;828;-72
2021/07/24 07:37:51;;;;;;;;;;;25.30;49.60;;;;;;1528882;76;751;-70
2021/07/24 07:39:53;;;;;;;;;;;25.30;49.70;;;;;;1523945;76;759;-70
2021/07/24 07:41:54;;;;;;;;;;;25.30;49.70;;;;;;1535788;75;769;-70
2021/07/24 07:43:57;;;;;;;;;;;25.30;49.80;;;;;;1529122;75;1178;-70
2021/07/24 07:45:59;;;;;;;;;;;25.30;49.80;;;;;;1535316;75;1913;-72
2021/07/24 07:48:01;;;;;;;;;;;25.20;49.90;;;;;;1543826;75;931;-70
2021/07/24 07:50:03;;;;;;;;;;;25.30;50.00;;;;;;1543894;75;712;-72
2021/07/24 07:52:05;;;;;;;;;;;25.30;50.00;;;;;;1543138;75;723;-72
2021/07/24 07:54:07;;;;;;;;;;;25.20;50.00;;;;;;1546328;75;1170;-70
2021/07/24 07:56:10;;;;;;;;;;;25.20;50.00;;;;;;1540672;75;715;-70
2021/07/24 07:58:12;;;;;;;;;;;25.20;50.10;;;;;;1534016;75;849;-70
2021/07/24 08:00:14;;;;;;;;;;;25.20;50.10;;;;;;1537300;75;943;-68
2021/07/24 08:02:16;;;;;;;;;;;25.10;50.20;;;;;;1526557;75;1175;-71
2021/07/24 08:04:18;;;;;;;;;;;25.20;50.20;;;;;;1541705;75;776;-70
2021/07/24 08:06:20;;;;;;;;;;;25.20;50.20;;;;;;1539791;75;1936;-71
2021/07/24 08:08:22;;;;;;;;;;;25.20;50.30;;;;;;1537586;75;1078;-72
2021/07/24 08:10:24;;;;;;;;;;;25.10;50.30;;;;;;1534316;75;802;-71
2021/07/24 08:12:26;;;;;;;;;;;25.10;50.40;;;;;;1529694;75;1202;-68
2021/07/24 08:14:27;;;;;;;;;;;25.20;50.60;;;;;;1533986;75;718;-70
2021/07/24 08:16:29;;;;;;;;;;;25.10;50.60;;;;;;1558399;75;768;-71
2021/07/24 08:18:31;;;;;;;;;;;25.20;50.70;;;;;;1531063;75;730;-71
2021/07/24 08:20:33;;;;;;;;;;;25.10;50.80;;;;;;1544571;75;794;-70
2021/07/24 08:22:35;;;;;;;;;;;25.10;50.90;;;;;;1541267;75;1141;-71
2021/07/24 08:24:37;;;;;;;;;;;25.10;51.00;;;;;;1542414;75;796;-71
2021/07/24 08:26:39;;;;;;;;;;;25.10;51.00;;;;;;1544646;75;1926;-72
2021/07/24 08:28:41;;;;;;;;;;;25.20;51.00;;;;;;1529332;75;799;-69
2021/07/24 08:30:45;;;;;;;;;;;25.10;51.10;;;;;;1533588;75;768;-71
2021/07/24 08:32:47;;;;;;;;;;;25.10;51.30;;;;;;1534370;75;1187;-71
2021/07/24 08:34:50;;;;;;;;;;;25.10;51.30;;;;;;1530731;75;746;-71
2021/07/24 08:36:52;;;;;;;;;;;25.10;51.30;;;;;;1529896;75;1524;-71
2021/07/24 08:38:54;;;;;;;;;;;25.20;51.30;;;;;;1526352;75;694;-71
2021/07/24 08:40:56;;;;;;;;;;;25.20;51.20;;;;;;1538659;75;776;-71
2021/07/24 08:43:06;;;;;;;;;;;25.20;51.20;;;;;;1535274;75;1150;-70
2021/07/24 08:45:08;;;;;;;;;;;25.20;51.30;;;;;;1528052;75;1404;-71
2021/07/24 08:47:10;;;;;;;;;;;25.10;51.40;;;;;;1538693;75;1954;-71
2021/07/24 08:49:12;;;;;;;;;;;25.10;51.90;;;;;;1542615;75;719;-72
2021/07/24 08:51:15;;;;;;;;;;;25.10;52.30;;;;;;1531956;75;793;-71
2021/07/24 08:53:19;;;;;;;;;;;25.10;52.60;;;;;;1537035;75;1198;-71
2021/07/24 08:55:24;;;;;;;;;;;25.10;52.60;;;;;;1533350;75;2049;-72
2021/07/24 08:57:28;;;;;;;;;;;25.10;52.80;;;;;;1532724;75;813;-71
2021/07/24 08:59:30;;;;;;;;;;;25.20;53.10;;;;;;1530154;75;724;-72
2021/07/24 09:01:31;;;;;;;;;;;25.20;53.20;;;;;;1528484;75;718;-72
2021/07/24 09:03:34;;;;;;;;;;;25.10;53.50;;;;;;1542785;75;1111;-72
2021/07/24 09:05:36;;;;;;;;;;;25.10;53.40;;;;;;1530788;75;777;-70
2021/07/24 09:07:39;;;;;;;;;;;25.10;53.50;;;;;;1534866;75;1937;-72
2021/07/24 09:09:41;;;;;;;;;;;25.20;53.60;;;;;;1532712;75;719;-71
2021/07/24 09:11:43;;;;;;;;;;;25.20;53.50;;;;;;1531419;75;719;-72
2021/07/24 09:13:45;;;;;;;;;;;25.20;53.50;;;;;;1536207;75;1122;-70
2021/07/24 09:15:47;;;;;;;;;;;25.20;53.40;;;;;;1538223;75;827;-70
2021/07/24 09:17:49;;;;;;;;;;;25.30;53.50;;;;;;1532084;75;729;-71
2021/07/24 09:19:51;;;;;;;;;;;25.30;53.40;;;;;;1536477;75;791;-71
2021/07/24 09:21:53;;;;;;;;;;;25.30;53.40;;;;;;1547088;75;727;-71
2021/07/24 09:23:54;;;;;;;;;;;25.40;53.50;;;;;;1534889;75;1128;-70
2021/07/24 09:25:57;;;;;;;;;;;25.30;53.40;;;;;;1544497;75;775;-73
2021/07/24 09:28:01;;;;;;;;;;;25.40;53.40;;;;;;1532037;75;1891;-72
2021/07/24 09:30:03;;;;;;;;;;;25.40;53.30;;;;;;1510780;76;1723;-72
2021/07/24 09:32:05;;;;;;;;;;;25.40;53.20;;;;;;1538430;75;762;-71
2021/07/24 09:34:07;;;;;;;;;;;25.40;53.30;;;;;;1516249;77;1194;-70
2021/07/24 09:36:09;;;;;;;;;;;25.50;53.10;;;;;;1540935;75;789;-72
2021/07/24 09:38:16;;;;;;;;;;;25.50;53.30;;;;;;1528085;75;751;-71
2021/07/24 09:40:22;;;;;;;;;;;25.50;53.30;;;;;;1533475;75;716;-72
2021/07/24 09:42:33;;;;;;;;;;;25.50;53.20;;;;;;1542860;75;1139;-72
2021/07/24 09:44:37;;;;;;;;;;;25.50;53.20;;;;;;1536511;75;729;-72
2021/07/24 09:46:38;;;;;;;;;;;25.50;53.20;;;;;;1540674;75;2210;-72
2021/07/24 09:48:41;;;;;;;;;;;25.50;53.10;;;;;;1527797;75;1029;-72
2021/07/24 09:50:48;;;;;;;;;;;25.50;53.10;;;;;;1533185;75;768;-72
2021/07/24 09:52:47;;;;;;;;;;;25.50;53.70;;;;;;1534799;75;1560;-71
2021/07/24 09:54:49;;;;;;;;;;;25.50;53.40;;;;;;1536684;75;797;-72
2021/07/24 09:56:51;;;;;;;;;;;25.50;53.50;;;;;;1533596;75;701;-71
2021/07/24 09:58:53;;;;;;;;;;;25.50;53.30;;;;;;1538979;75;792;-72
2021/07/24 10:01:04;;;;;;;;;;;25.50;53.40;;;;;;1511345;77;683;-71
2021/07/24 10:03:06;;;;;;;;;;;25.50;53.70;;;;;;1547595;75;1186;-71
2021/07/24 10:05:08;;;;;;;;;;;25.50;53.50;;;;;;1547719;75;739;-71
2021/07/24 10:07:11;;;;;;;;;;;25.50;53.40;;;;;;1543901;75;1928;-70
2021/07/24 10:09:13;;;;;;;;;;;25.60;52.90;;;;;;1555021;75;751;-71
2021/07/24 10:11:15;;;;;;;;;;;25.60;52.80;;;;;;1518456;76;754;-72
2021/07/24 10:13:17;;;;;;;;;;;25.70;52.60;;;;;;1543964;75;1136;-71
2021/07/24 10:15:19;;;;;;;;;;;25.70;52.50;;;;;;1558142;75;811;-70
2021/07/24 10:17:21;;;;;;;;;;;25.60;52.10;;;;;;1556325;75;798;-70
2021/07/24 10:19:23;;;;;;;;;;;25.70;51.80;;;;;;1557466;75;766;-70
2021/07/24 10:21:25;;;;;;;;;;;25.60;51.90;;;;;;1546847;75;699;-72
2021/07/24 10:23:28;;;;;;;;;;;25.60;51.90;;;;;;1548980;75;1099;-70
2021/07/24 10:25:30;;;;;;;;;;;25.50;51.80;;;;;;1542929;75;794;-72
2021/07/24 10:27:33;;;;;;;;;;;25.60;51.80;;;;;;1548728;75;1946;-71
2021/07/24 10:29:36;;;;;;;;;;;25.60;51.80;;;;;;1547574;75;762;-71
2021/07/24 10:31:38;;;;;;;;;;;25.70;51.60;;;;;;1544387;75;729;-71
2021/07/24 10:33:40;;;;;;;;;;;25.70;51.70;;;;;;1532417;76;1122;-69
2021/07/24 10:35:43;;;;;;;;;;;25.60;52.20;;;;;;1551371;75;824;-71
2021/07/24 10:37:46;;;;;;;;;;;25.60;52.30;;;;;;1547608;75;797;-71
2021/07/24 10:39:48;;;;;;;;;;;25.70;52.10;;;;;;1559215;75;798;-69
2021/07/24 10:41:53;;;;;;;;;;;25.60;53.00;;;;;;1545299;75;748;-71
2021/07/24 10:44:04;;;;;;;;;;;25.60;52.70;;;;;;1556495;75;1092;-69
2021/07/24 10:46:06;;;;;;;;;;;25.70;52.50;;;;;;1547241;75;727;-72
2021/07/24 10:48:16;;;;;;;;;;;25.70;52.30;;;;;;1549969;75;1940;-70
2021/07/24 10:50:18;;;;;;;;;;;25.70;52.90;;;;;;1547285;75;761;-70
2021/07/24 10:52:20;;;;;;;;;;;25.70;52.40;;;;;;1545910;75;1124;-70
2021/07/24 10:54:22;;;;;;;;;;;25.70;52.10;;;;;;1555186;75;828;-71
2021/07/24 10:56:38;;;;;;;;;;;25.80;51.90;;;;;;1545318;75;810;-70
2021/07/24 10:58:39;;;;;;;;;;;25.90;51.70;;;;;;1521585;76;1012;-70
2021/07/24 11:00:59;;;;;;;;;;;25.80;51.80;;;;;;1516177;77;1172;-70
2021/07/24 11:02:57;;;;;;;;;;;25.80;51.80;;;;;;1524715;76;1862;-68
2021/07/24 11:05:01;;;;;;;;;;;25.80;52.50;;;;;;1524807;76;788;-72
2021/07/24 11:07:20;;;;;;;;;;;25.70;51.60;;;;;;1523404;76;1941;-70
2021/07/24 11:09:24;;;;;;;;;;;25.80;52.10;;;;;;1522239;76;1675;-71
2021/07/24 11:11:37;;;;;;;;;;;25.80;51.90;;;;;;1512661;76;1878;-70
2021/07/24 11:13:48;;;;;;;;;;;25.70;51.90;;;;;;1520395;76;1137;-71
2021/07/24 11:15:50;;;;;;;;;;;25.80;52.40;;;;;;1521426;76;744;-70
2021/07/24 11:18:10;;;;;;;;;;;25.70;52.10;;;;;;1528211;76;750;-71
2021/07/24 11:20:13;;;;;;;;;;;25.70;52.30;;;;;;1535748;76;749;-71
2021/07/24 11:22:16;;;;;;;;;;;25.80;51.90;;;;;;1539905;76;1137;-70
2021/07/24 11:24:17;;;;;;;;;;;25.90;51.90;;;;;;1535423;76;722;-71
2021/07/24 11:26:19;;;;;;;;;;;25.80;51.70;;;;;;1539119;76;719;-74
2021/07/24 11:28:22;;;;;;;;;;;25.90;51.50;;;;;;1521538;76;1945;-71
2021/07/24 11:30:26;;;;;;;;;;;25.90;51.30;;;;;;1522627;76;736;-72
2021/07/24 11:32:27;;;;;;;;;;;25.90;51.40;;;;;;1535455;76;2024;-72
2021/07/24 11:34:33;;;;;;;;;;;25.90;51.30;;;;;;1543769;76;749;-72
2021/07/24 11:36:35;;;;;;;;;;;25.90;51.10;;;;;;1536044;76;713;-74
2021/07/24 11:38:37;;;;;;;;;;;25.90;51.10;;;;;;1519763;76;797;-72
2021/07/24 11:40:39;;;;;;;;;;;25.80;51.20;;;;;;1525228;76;717;-71
2021/07/24 11:42:41;;;;;;;;;;;25.90;51.30;;;;;;1534249;76;1134;-73
2021/07/24 11:44:43;;;;;;;;;;;25.90;51.40;;;;;;1532647;76;791;-72
2021/07/24 11:46:49;;;;;;;;;;;25.90;51.30;;;;;;1512935;77;1305;-72
2021/07/24 11:48:52;;;;;;;;;;;25.90;51.20;;;;;;1527762;76;1830;-72
2021/07/24 11:51:08;;;;;;;;;;;25.90;51.80;;;;;;1519857;76;1079;-73
2021/07/24 11:53:13;;;;;;;;;;;25.90;52.10;;;;;;1524234;76;1135;-71
2021/07/24 11:55:32;;;;;;;;;;;25.90;52.10;;;;;;1522267;76;813;-75
2021/07/24 11:57:34;;;;;;;;;;;25.80;52.60;;;;;;1519486;76;742;-71
2021/07/24 11:59:35;;;;;;;;;;;25.80;52.40;;;;;;1517129;76;777;-71
2021/07/24 12:01:38;;;;;;;;;;;25.90;52.30;;;;;;1507421;77;1219;-71
2021/07/24 12:03:41;;;;;;;;;;;25.90;52.30;;;;;;1510804;77;1375;-72
2021/07/24 12:05:43;;;;;;;;;;;25.90;52.30;;;;;;1527850;76;750;-68
2021/07/24 12:07:46;;;;;;;;;;;26.00;52.30;;;;;;1522473;76;1975;-72
2021/07/24 12:09:48;;;;;;;;;;;26.00;51.20;;;;;;1527600;76;800;-71
2021/07/24 12:12:01;;;;;;;;;;;25.90;50.80;;;;;;1527317;76;757;-73
2021/07/24 12:14:04;;;;;;;;;;;25.90;51.40;;;;;;1527385;76;1215;-72
2021/07/24 12:16:06;;;;;;;;;;;25.90;51.50;;;;;;1530041;76;727;-72